TimeEST,TemperatureF,Dew PointF,Humidity,Sea Level PressureIn,VisibilityMPH,Wind Direction,Wind SpeedMPH,Gust SpeedMPH,PrecipitationIn,Events,Conditions,WindDirDegrees,DateUTC
12:52 AM,39.0,24.1,55,30.25,10.0,WSW,9.2,-,N/A,,Mostly Cloudy,240,2012-11-30 05:52:00
1:52 AM,39.0,23.0,53,30.26,10.0,WSW,9.2,-,N/A,,Scattered Clouds,250,2012-11-30 06:52:00
2:52 AM,37.9,23.0,55,30.26,10.0,Variable,6.9,-,N/A,,Clear,0,2012-11-30 07:52:00
3:52 AM,28.9,21.9,75,30.28,10.0,North,3.5,-,N/A,,Clear,350,2012-11-30 08:52:00
4:52 AM,28.0,23.0,81,30.32,10.0,Calm,Calm,-,N/A,,Clear,0,2012-11-30 09:52:00
5:52 AM,26.1,21.9,84,30.35,9.0,Calm,Calm,-,N/A,,Clear,0,2012-11-30 10:52:00
6:52 AM,28.0,23.0,81,30.38,10.0,Calm,Calm,-,N/A,,Clear,0,2012-11-30 11:52:00
7:52 AM,30.9,25.0,79,30.41,10.0,North,3.5,-,N/A,,Mostly Cloudy,360,2012-11-30 12:52:00
8:52 AM,35.1,19.0,52,30.44,10.0,North,8.1,-,N/A,,Mostly Cloudy,10,2012-11-30 13:52:00
9:52 AM,36.0,12.9,39,30.46,10.0,North,9.2,-,N/A,,Clear,360,2012-11-30 14:52:00
10:52 AM,36.0,8.1,31,30.45,10.0,North,9.2,-,N/A,,Clear,10,2012-11-30 15:52:00
11:52 AM,37.9,7.0,28,30.44,10.0,Variable,6.9,-,N/A,,Clear,0,2012-11-30 16:52:00
12:52 PM,39.0,10.0,30,30.44,10.0,Variable,4.6,-,N/A,,Clear,0,2012-11-30 17:52:00
1:52 PM,37.9,14.0,38,30.44,10.0,NNE,8.1,-,N/A,,Clear,30,2012-11-30 18:52:00
2:52 PM,36.0,15.1,43,30.45,10.0,NNE,5.8,-,N/A,,Scattered Clouds,20,2012-11-30 19:52:00
3:52 PM,34.0,18.0,52,30.48,10.0,NNE,3.5,-,N/A,,Mostly Cloudy,20,2012-11-30 20:52:00
4:52 PM,33.1,19.0,56,30.50,10.0,Variable,4.6,-,N/A,,Overcast,0,2012-11-30 21:52:00
5:52 PM,33.1,19.0,56,30.50,10.0,Variable,4.6,-,N/A,,Overcast,0,2012-11-30 22:52:00
6:52 PM,32.0,19.9,61,30.52,10.0,Calm,Calm,-,N/A,,Overcast,0,2012-11-30 23:52:00
7:52 PM,32.0,19.0,59,30.54,10.0,Calm,Calm,-,N/A,,Overcast,0,2012-12-01 00:52:00
8:52 PM,32.0,19.0,59,30.54,10.0,NNE,3.5,-,N/A,,Overcast,20,2012-12-01 01:52:00
9:52 PM,32.0,19.0,59,30.54,10.0,NNE,3.5,-,N/A,,Overcast,30,2012-12-01 02:52:00
10:52 PM,32.0,19.9,61,30.54,10.0,Calm,Calm,-,N/A,,Overcast,0,2012-12-01 03:52:00
11:52 PM,32.0,19.9,61,30.54,10.0,Calm,Calm,-,N/A,,Overcast,0,2012-12-01 04:52:00